Time,TemperatureF,DewpointF,PressureIn,WindDirection,WindDirectionDegrees,WindSpeedMPH,WindSpeedGustMPH,Humidity,HourlyPrecipIn,Conditions,Clouds,dailyrainin,SoftwareType,DateUTC
2013-07-10 08:22:00,76.0,72.0,29.80,SE,134,12.0,12.0,88,0.00,,,0.00,,2013-07-10 12:22:00,
2013-07-10 08:33:00,76.0,72.0,29.80,SE,134,12.0,12.0,88,0.00,,,0.00,,2013-07-10 12:33:00,
2013-07-10 08:43:00,76.0,72.0,29.80,SE,134,12.0,12.0,88,0.00,,,0.00,,2013-07-10 12:43:00,
2013-07-10 09:01:00,78.0,73.0,29.78,ENE,74,2.0,4.0,85,0.00,,,0.00,,2013-07-10 13:01:00,
2013-07-10 09:12:00,78.0,73.0,29.78,ENE,74,2.0,4.0,85,0.00,,,0.00,,2013-07-10 13:12:00,
2013-07-10 09:22:00,78.0,73.0,29.78,East,90,0.0,1.0,85,0.00,,,0.00,,2013-07-10 13:22:00,
2013-07-10 09:32:00,78.0,73.0,29.78,South,170,6.0,6.0,85,0.00,,,0.00,,2013-07-10 13:32:00,
2013-07-10 09:43:00,78.0,73.0,29.78,South,170,6.0,6.0,85,0.00,,,0.00,,2013-07-10 13:43:00,
2013-07-10 09:52:00,78.0,73.0,29.78,South,170,6.0,6.0,85,0.00,,,0.00,,2013-07-10 13:52:00,
2013-07-10 10:01:00,78.0,73.0,29.78,SSE,163,3.0,3.0,86,0.00,,,0.00,,2013-07-10 14:01:00,
2013-07-10 10:12:00,78.0,73.0,29.78,SSE,163,3.0,3.0,86,0.00,,,0.00,,2013-07-10 14:12:00,
2013-07-10 10:43:00,79.0,74.0,29.77,ESE,103,1.0,6.0,85,0.00,,,0.00,,2013-07-10 14:43:00,
2013-07-10 10:53:00,79.0,74.0,29.77,ESE,103,1.0,6.0,85,0.00,,,0.00,,2013-07-10 14:53:00,
2013-07-10 11:01:00,77.0,73.0,29.77,NNE,18,1.0,0.0,88,0.00,,,0.00,,2013-07-10 15:01:00,
2013-07-10 11:11:00,77.0,73.0,29.77,NNE,18,1.0,0.0,88,0.00,,,0.00,,2013-07-10 15:11:00,
2013-07-10 11:22:00,77.0,73.0,29.77,NNE,18,1.0,0.0,88,0.00,,,0.00,,2013-07-10 15:22:00,
2013-07-10 11:34:00,77.0,74.0,29.77,NE,38,0.0,3.0,91,0.00,,,0.00,,2013-07-10 15:34:00,
2013-07-10 11:42:00,77.0,74.0,29.77,ENE,72,4.0,6.0,91,0.00,,,0.00,,2013-07-10 15:42:00,
2013-07-10 11:52:00,77.0,74.0,29.77,ENE,72,4.0,6.0,91,0.00,,,0.00,,2013-07-10 15:52:00,
2013-07-10 12:02:00,77.0,74.0,29.77,ENE,72,4.0,6.0,91,0.00,,,0.00,,2013-07-10 16:02:00,
2013-07-10 12:11:00,74.0,73.0,29.77,ESE,121,6.0,6.0,97,0.00,,,0.00,,2013-07-10 16:11:00,
2013-07-10 12:23:00,74.0,73.0,29.77,ESE,121,6.0,6.0,97,0.00,,,0.00,,2013-07-10 16:23:00,
2013-07-10 12:33:00,74.0,73.0,29.77,ESE,121,6.0,6.0,97,0.00,,,0.00,,2013-07-10 16:33:00,
2013-07-10 12:44:00,74.0,74.0,29.76,SE,134,5.0,5.0,100,0.00,,,0.00,,2013-07-10 16:44:00,
2013-07-10 12:53:00,74.0,74.0,29.76,SE,134,5.0,5.0,100,0.00,,,0.00,,2013-07-10 16:53:00,
2013-07-10 13:12:00,74.0,74.0,29.76,ENE,70,1.0,6.0,100,0.00,,,0.00,,2013-07-10 17:12:00,
2013-07-10 13:32:00,75.0,75.0,29.75,SSE,160,2.0,0.0,100,0.00,,,0.00,,2013-07-10 17:32:00,
2013-07-10 13:43:00,75.0,75.0,29.75,East,91,2.0,3.0,100,0.00,,,0.00,,2013-07-10 17:43:00,
2013-07-10 13:53:00,75.0,75.0,29.75,East,91,2.0,3.0,100,0.00,,,0.00,,2013-07-10 17:53:00,
2013-07-10 14:02:00,75.0,75.0,29.75,East,91,2.0,3.0,100,0.00,,,0.00,,2013-07-10 18:02:00,
2013-07-10 14:11:00,75.0,75.0,29.75,East,91,2.0,3.0,100,0.00,,,0.00,,2013-07-10 18:11:00,
2013-07-10 14:32:00,75.0,75.0,29.74,SSW,206,3.0,4.0,100,0.00,,,0.00,,2013-07-10 18:32:00,
2013-07-10 14:53:00,75.0,75.0,29.73,East,90,6.0,6.0,100,0.00,,,0.00,,2013-07-10 18:53:00,
2013-07-10 15:01:00,75.0,75.0,29.73,East,83,5.0,5.0,99,0.00,,,0.00,,2013-07-10 19:01:00,
2013-07-10 15:11:00,75.0,75.0,29.73,East,83,5.0,5.0,99,0.00,,,0.00,,2013-07-10 19:11:00,
2013-07-10 15:22:00,75.0,75.0,29.73,East,83,5.0,5.0,99,0.00,,,0.00,,2013-07-10 19:22:00,
2013-07-10 15:32:00,75.0,75.0,29.73,East,83,5.0,5.0,99,0.00,,,0.00,,2013-07-10 19:32:00,
2013-07-10 15:42:00,79.0,77.0,29.71,SE,139,5.0,6.0,93,0.00,,,0.00,,2013-07-10 19:42:00,
2013-07-10 15:53:00,79.0,77.0,29.71,SE,139,5.0,6.0,93,0.00,,,0.00,,2013-07-10 19:53:00,
2013-07-10 16:02:00,79.0,75.0,29.71,SSE,168,4.0,6.0,89,0.00,,,0.00,,2013-07-10 20:02:00,
2013-07-10 16:11:00,79.0,75.0,29.71,SSE,168,4.0,6.0,89,0.00,,,0.00,,2013-07-10 20:11:00,
2013-07-10 16:22:00,79.0,75.0,29.71,SSE,168,4.0,6.0,89,0.00,,,0.00,,2013-07-10 20:22:00,
2013-07-10 16:32:00,79.0,75.0,29.71,SSE,168,4.0,6.0,89,0.00,,,0.00,,2013-07-10 20:32:00,
2013-07-10 16:43:00,81.0,75.0,29.69,NNE,21,1.0,2.0,83,0.00,,,0.00,,2013-07-10 20:43:00,
2013-07-10 16:52:00,81.0,75.0,29.69,NNE,21,1.0,2.0,83,0.00,,,0.00,,2013-07-10 20:52:00,
2013-07-10 17:01:00,81.0,76.0,29.68,SSW,193,3.0,4.0,84,0.00,,,0.00,,2013-07-10 21:01:00,
2013-07-10 17:12:00,81.0,76.0,29.68,SSW,193,3.0,4.0,84,0.00,,,0.00,,2013-07-10 21:12:00,
2013-07-10 17:22:00,81.0,75.0,29.68,SSE,149,4.0,4.0,82,0.00,,,0.00,,2013-07-10 21:22:00,
2013-07-10 17:32:00,81.0,75.0,29.68,SSE,149,4.0,4.0,82,0.00,,,0.00,,2013-07-10 21:32:00,
2013-07-10 17:42:00,82.0,75.0,29.67,South,187,5.0,7.0,80,0.00,,,0.00,,2013-07-10 21:42:00,
2013-07-10 17:52:00,82.0,75.0,29.67,South,187,5.0,7.0,80,0.00,,,0.00,,2013-07-10 21:52:00,
2013-07-10 18:01:00,82.0,76.0,29.68,East,83,2.0,4.0,81,0.00,,,0.00,,2013-07-10 22:01:00,
2013-07-10 18:11:00,82.0,76.0,29.68,East,83,2.0,4.0,81,0.00,,,0.00,,2013-07-10 22:11:00,
2013-07-10 18:21:00,82.0,76.0,29.68,East,83,2.0,4.0,81,0.00,,,0.00,,2013-07-10 22:21:00,
2013-07-10 18:33:00,82.0,76.0,29.68,East,83,2.0,4.0,81,0.00,,,0.00,,2013-07-10 22:33:00,
2013-07-10 18:43:00,81.0,74.0,29.68,SSE,165,7.0,7.0,80,0.00,,,0.00,,2013-07-10 22:43:00,
2013-07-10 18:53:00,81.0,74.0,29.68,SSE,165,7.0,7.0,80,0.00,,,0.00,,2013-07-10 22:53:00,
2013-07-10 19:01:00,81.0,74.0,29.68,SSE,165,7.0,7.0,80,0.00,,,0.00,,2013-07-10 23:01:00,
2013-07-10 19:11:00,81.0,74.0,29.68,SSE,165,7.0,7.0,80,0.00,,,0.00,,2013-07-10 23:11:00,
2013-07-10 19:22:00,80.0,74.0,29.68,SE,125,4.0,6.0,82,0.00,,,0.00,,2013-07-10 23:22:00,
2013-07-10 19:32:00,80.0,74.0,29.68,SE,125,4.0,6.0,82,0.00,,,0.00,,2013-07-10 23:32:00,
2013-07-10 19:43:00,80.0,74.0,29.68,SE,125,4.0,6.0,82,0.00,,,0.00,,2013-07-10 23:43:00,
2013-07-10 19:44:00,80.0,74.0,29.68,SE,125,4.0,6.0,82,0.00,,,0.00,,2013-07-10 23:44:00,
2013-07-10 19:52:00,79.0,73.0,29.68,SE,145,1.0,6.0,82,0.00,,,0.00,,2013-07-10 23:52:00,
2013-07-10 20:01:00,79.0,74.0,29.68,South,177,4.0,4.0,85,0.00,,,0.00,,2013-07-11 00:01:00,
2013-07-10 20:11:00,79.0,74.0,29.68,South,177,4.0,4.0,85,0.00,,,0.00,,2013-07-11 00:11:00,
2013-07-10 20:22:00,78.0,73.0,29.69,South,172,6.0,6.0,86,0.00,,,0.00,,2013-07-11 00:22:00,
2013-07-10 20:32:00,78.0,73.0,29.69,South,172,6.0,6.0,86,0.00,,,0.00,,2013-07-11 00:32:00,
2013-07-10 20:42:00,78.0,73.0,29.69,South,172,6.0,6.0,86,0.00,,,0.00,,2013-07-11 00:42:00,
2013-07-10 20:52:00,78.0,73.0,29.69,South,172,6.0,6.0,86,0.00,,,0.00,,2013-07-11 00:52:00,
2013-07-10 21:01:00,78.0,73.0,29.69,South,172,6.0,6.0,86,0.00,,,0.00,,2013-07-11 01:01:00,